Time;durP1;ratioP1;P1;durP2;ratioP2;P2;SDS_P1;SDS_P2;PMS_P1;PMS_P2;Temp;Humidity;BMP_temperature;BMP_pressure;BME280_temperature;BME280_humidity;BME280_pressure;Samples;Min_cycle;Max_cycle;Signal;HPM_P1;HPM_P2
2022/03/13 00:01:27;;;;;;;3.97;1.67;;;;;;;;;;4990040;28;20161;-78
2022/03/13 00:03:53;;;;;;;2.35;1.35;;;;;;;;;;4992337;28;20061;-78
2022/03/13 00:06:21;;;;;;;2.53;1.48;;;;;;;;;;5010790;28;20113;-78
2022/03/13 00:08:55;;;;;;;2.63;1.63;;;;;;;;;;4995206;28;20041;-78
2022/03/13 00:11:20;;;;;;;2.22;1.63;;;;;;;;;;4991971;28;20034;-78
2022/03/13 00:13:51;;;;;;;2.15;1.33;;;;;;;;;;4973652;28;20512;-78
2022/03/13 00:16:17;;;;;;;3.67;1.35;;;;;;;;;;4974455;28;20114;-78
2022/03/13 00:18:46;;;;;;;3.42;1.67;;;;;;;;;;4976425;28;20401;-78
2022/03/13 00:21:15;;;;;;;3.45;1.48;;;;;;;;;;4994903;28;20041;-78
2022/03/13 00:23:41;;;;;;;2.33;1.13;;;;;;;;;;4995023;28;20041;-78
2022/03/13 00:26:07;;;;;;;2.47;1.50;;;;;;;;;;5010932;28;20037;-78
2022/03/13 00:28:32;;;;;;;2.30;1.38;;;;;;;;;;4994204;28;20511;-78
2022/03/13 00:30:59;;;;;;;2.30;1.20;;;;;;;;;;4994624;28;20044;-79
2022/03/13 00:33:25;;;;;;;2.72;1.50;;;;;;;;;;5010636;28;20493;-78
2022/03/13 00:35:51;;;;;;;1.98;1.10;;;;;;;;;;4993792;28;20038;-78
2022/03/13 00:38:17;;;;;;;2.50;1.42;;;;;;;;;;4993439;28;20042;-78
2022/03/13 00:40:48;;;;;;;2.33;1.40;;;;;;;;;;4994853;28;20042;-78
2022/03/13 00:43:13;;;;;;;3.10;1.10;;;;;;;;;;4994599;28;20040;-78
2022/03/13 00:45:39;;;;;;;2.13;1.23;;;;;;;;;;4977913;28;20389;-78
2022/03/13 00:48:04;;;;;;;2.13;1.20;;;;;;;;;;5010150;28;20065;-78
2022/03/13 00:50:30;;;;;;;1.98;1.00;;;;;;;;;;4993581;28;20546;-78
2022/03/13 00:52:57;;;;;;;2.13;1.08;;;;;;;;;;4994244;28;20099;-78
2022/03/13 00:55:22;;;;;;;2.40;1.38;;;;;;;;;;4994947;28;20053;-78
2022/03/13 00:57:48;;;;;;;2.00;1.17;;;;;;;;;;4994104;28;20077;-78
2022/03/13 01:00:14;;;;;;;1.95;1.00;;;;;;;;;;5026834;28;20081;-78
2022/03/13 01:02:40;;;;;;;1.92;1.15;;;;;;;;;;5010308;28;20400;-78
2022/03/13 01:05:08;;;;;;;2.38;1.33;;;;;;;;;;4998800;28;20053;-78
2022/03/13 01:07:33;;;;;;;1.83;1.10;;;;;;;;;;5006676;28;20040;-78
2022/03/13 01:09:59;;;;;;;2.00;1.20;;;;;;;;;;5007446;28;20038;-78
2022/03/13 01:12:24;;;;;;;1.45;0.82;;;;;;;;;;5000056;28;20439;-78
2022/03/13 01:14:50;;;;;;;1.90;1.05;;;;;;;;;;4978296;28;20062;-78
2022/03/13 01:17:17;;;;;;;2.40;1.00;;;;;;;;;;4994309;28;20455;-78
2022/03/13 01:19:42;;;;;;;2.22;1.40;;;;;;;;;;4963002;28;20045;-78
2022/03/13 01:22:08;;;;;;;1.73;1.00;;;;;;;;;;4994446;28;20405;-78
2022/03/13 01:24:45;;;;;;;2.00;1.15;;;;;;;;;;4995403;28;20104;-78
2022/03/13 01:27:17;;;;;;;2.10;1.27;;;;;;;;;;4998946;28;20038;-78
2022/03/13 01:29:42;;;;;;;2.10;1.35;;;;;;;;;;4997401;28;20041;-78
2022/03/13 01:32:09;;;;;;;2.00;1.27;;;;;;;;;;4998016;28;20113;-78
2022/03/13 01:34:35;;;;;;;1.90;0.90;;;;;;;;;;4994128;28;20038;-78
2022/03/13 01:37:04;;;;;;;2.83;1.13;;;;;;;;;;4994221;28;20484;-78
2022/03/13 01:39:30;;;;;;;1.85;1.10;;;;;;;;;;4994410;28;20405;-78
2022/03/13 01:41:55;;;;;;;1.98;0.90;;;;;;;;;;5010614;28;20045;-77
2022/03/13 01:44:21;;;;;;;1.95;1.20;;;;;;;;;;5010505;28;20045;-78
2022/03/13 01:46:46;;;;;;;1.63;1.00;;;;;;;;;;5010375;28;20039;-78
2022/03/13 01:49:12;;;;;;;2.10;1.40;;;;;;;;;;5010583;28;20037;-78
2022/03/13 01:51:38;;;;;;;1.70;0.88;;;;;;;;;;4997422;28;20040;-78
2022/03/13 01:54:09;;;;;;;2.13;1.13;;;;;;;;;;4997069;28;20080;-78
2022/03/13 01:56:35;;;;;;;1.95;1.08;;;;;;;;;;4997283;28;20034;-78
2022/03/13 01:59:00;;;;;;;1.35;0.80;;;;;;;;;;5010491;28;20059;-78
2022/03/13 02:01:27;;;;;;;1.70;0.75;;;;;;;;;;4994145;28;20026;-78
2022/03/13 02:03:52;;;;;;;1.85;1.10;;;;;;;;;;4977732;28;20042;-78
2022/03/13 02:06:18;;;;;;;2.33;1.15;;;;;;;;;;4993697;28;20049;-78
2022/03/13 02:08:47;;;;;;;2.58;1.40;;;;;;;;;;4993598;28;20049;-78
2022/03/13 02:11:18;;;;;;;1.95;1.02;;;;;;;;;;4996342;28;20034;-78
2022/03/13 02:13:45;;;;;;;1.98;1.30;;;;;;;;;;5013018;28;20042;-78
2022/03/13 02:16:11;;;;;;;1.95;0.80;;;;;;;;;;5013185;28;20452;-78
2022/03/13 02:18:39;;;;;;;1.75;1.05;;;;;;;;;;4992290;28;20050;-78
2022/03/13 02:21:05;;;;;;;1.85;1.15;;;;;;;;;;4996370;28;20030;-78
2022/03/13 02:23:30;;;;;;;2.08;1.10;;;;;;;;;;4995421;28;20041;-78
2022/03/13 02:26:00;;;;;;;1.75;1.00;;;;;;;;;;4996862;28;20492;-78
2022/03/13 02:28:51;;;;;;;2.63;0.98;;;;;;;;;;4980732;28;20077;-78
2022/03/13 02:31:18;;;;;;;1.90;1.10;;;;;;;;;;4974686;28;20045;-78
2022/03/13 02:33:45;;;;;;;1.67;0.95;;;;;;;;;;4996553;28;20038;-78
2022/03/13 02:36:32;;;;;;;1.17;0.82;;;;;;;;;;4996374;28;20052;-78
2022/03/13 02:38:58;;;;;;;1.67;0.90;;;;;;;;;;5012471;28;20038;-78
2022/03/13 02:41:26;;;;;;;1.38;1.00;;;;;;;;;;5012859;28;20408;-78
2022/03/13 02:43:52;;;;;;;1.92;1.00;;;;;;;;;;5012951;28;20149;-78
2022/03/13 02:46:21;;;;;;;1.65;1.00;;;;;;;;;;4963993;28;20038;-78
2022/03/13 02:48:47;;;;;;;1.85;1.17;;;;;;;;;;4980291;28;20030;-78
2022/03/13 02:51:12;;;;;;;2.47;0.95;;;;;;;;;;5012393;28;20037;-78
2022/03/13 02:53:38;;;;;;;1.88;0.82;;;;;;;;;;5006378;28;20056;-78
2022/03/13 02:56:04;;;;;;;1.25;0.85;;;;;;;;;;4996057;28;20461;-78
2022/03/13 02:58:29;;;;;;;2.03;1.08;;;;;;;;;;4996142;28;20030;-78
2022/03/13 03:00:55;;;;;;;1.33;0.68;;;;;;;;;;5012628;28;20207;-78
2022/03/13 03:03:21;;;;;;;1.45;1.05;;;;;;;;;;5012231;28;20042;-78
2022/03/13 03:05:46;;;;;;;1.58;0.90;;;;;;;;;;5028716;28;20378;-78
2022/03/13 03:08:12;;;;;;;1.95;1.10;;;;;;;;;;4995221;28;20037;-78
2022/03/13 03:10:38;;;;;;;1.92;1.00;;;;;;;;;;4997408;28;20038;-78
2022/03/13 03:13:03;;;;;;;2.03;1.23;;;;;;;;;;4983897;28;20061;-78
2022/03/13 03:15:28;;;;;;;2.00;1.17;;;;;;;;;;4992976;28;20397;-77
2022/03/13 03:17:54;;;;;;;1.90;1.30;;;;;;;;;;4992127;28;20508;-78
2022/03/13 03:20:20;;;;;;;2.28;1.30;;;;;;;;;;5008751;28;20539;-78
2022/03/13 03:22:47;;;;;;;2.08;1.27;;;;;;;;;;4995117;28;20389;-78
2022/03/13 03:25:12;;;;;;;1.75;1.10;;;;;;;;;;4996141;28;20044;-78
2022/03/13 03:27:41;;;;;;;2.03;1.23;;;;;;;;;;4995050;28;20050;-78
2022/03/13 03:30:07;;;;;;;1.70;1.10;;;;;;;;;;4979453;28;20552;-78
2022/03/13 03:32:32;;;;;;;1.77;1.20;;;;;;;;;;4995583;28;20042;-78
2022/03/13 03:34:58;;;;;;;2.38;1.48;;;;;;;;;;5011227;28;20038;-78
2022/03/13 03:37:24;;;;;;;2.60;1.20;;;;;;;;;;4994530;28;20467;-78
2022/03/13 03:39:49;;;;;;;2.42;1.52;;;;;;;;;;4979358;28;20037;-78
2022/03/13 03:42:14;;;;;;;2.67;1.30;;;;;;;;;;4995444;28;20045;-78
2022/03/13 03:44:41;;;;;;;8.70;1.85;;;;;;;;;;4995036;28;20042;-78
2022/03/13 03:47:06;;;;;;;2.15;1.42;;;;;;;;;;5011331;28;20042;-78
2022/03/13 03:49:34;;;;;;;3.67;1.67;;;;;;;;;;4995109;28;20393;-78
2022/03/13 03:51:59;;;;;;;3.53;1.80;;;;;;;;;;4978977;28;20034;-78
2022/03/13 03:54:25;;;;;;;2.15;1.40;;;;;;;;;;4994757;28;20412;-78
2022/03/13 03:56:50;;;;;;;2.33;1.58;;;;;;;;;;5003768;28;20046;-78
2022/03/13 03:59:19;;;;;;;1.85;1.13;;;;;;;;;;5006848;28;20421;-78
2022/03/13 04:01:44;;;;;;;2.17;1.38;;;;;;;;;;4976367;28;20045;-78
2022/03/13 04:04:09;;;;;;;2.45;1.33;;;;;;;;;;4975120;28;20038;-78
2022/03/13 04:06:38;;;;;;;2.70;1.58;;;;;;;;;;4975238;28;20121;-78
2022/03/13 04:09:05;;;;;;;2.55;1.67;;;;;;;;;;4976118;28;20516;-78
2022/03/13 04:11:30;;;;;;;2.75;1.73;;;;;;;;;;4976943;28;20030;-78
2022/03/13 04:13:56;;;;;;;2.50;1.80;;;;;;;;;;4991537;28;20509;-78
2022/03/13 04:16:21;;;;;;;2.63;1.52;;;;;;;;;;4991458;28;20073;-78
2022/03/13 04:18:47;;;;;;;2.90;1.60;;;;;;;;;;4990788;28;20069;-78
2022/03/13 04:21:13;;;;;;;2.80;1.80;;;;;;;;;;5007567;28;20038;-78
2022/03/13 04:23:38;;;;;;;2.22;1.70;;;;;;;;;;5010688;28;20038;-78
2022/03/13 04:26:04;;;;;;;2.78;1.90;;;;;;;;;;4994436;28;20130;-78
2022/03/13 04:28:30;;;;;;;3.33;2.17;;;;;;;;;;4994639;28;20404;-78
2022/03/13 04:30:59;;;;;;;2.42;1.60;;;;;;;;;;4994556;28;20494;-78
2022/03/13 04:33:28;;;;;;;2.88;1.67;;;;;;;;;;4995091;28;20037;-78
2022/03/13 04:36:00;;;;;;;2.85;1.63;;;;;;;;;;4994626;28;20053;-78
2022/03/13 04:38:26;;;;;;;;;;;;;;;;;;4996976;28;20103;-78
2022/03/13 04:40:52;;;;;;;3.10;2.00;;;;;;;;;;5010788;28;19918;-78
2022/03/13 04:43:18;;;;;;;2.40;1.58;;;;;;;;;;4994777;28;20527;-78
2022/03/13 04:45:43;;;;;;;3.15;1.73;;;;;;;;;;4994381;28;20105;-77
2022/03/13 04:48:09;;;;;;;3.05;1.90;;;;;;;;;;5009769;28;20041;-77
2022/03/13 04:50:34;;;;;;;3.00;1.60;;;;;;;;;;4994097;28;20404;-77
2022/03/13 04:53:00;;;;;;;4.03;2.10;;;;;;;;;;4977934;28;20058;-77
2022/03/13 04:55:25;;;;;;;2.67;1.83;;;;;;;;;;5007691;28;20132;-78
2022/03/13 04:57:50;;;;;;;2.80;1.90;;;;;;;;;;5010223;28;20120;-77
2022/03/13 05:00:17;;;;;;;2.60;1.75;;;;;;;;;;5006483;28;20042;-78
2022/03/13 05:02:43;;;;;;;2.65;1.95;;;;;;;;;;4990742;28;20038;-78
2022/03/13 05:05:08;;;;;;;3.42;1.80;;;;;;;;;;4990813;28;20571;-78
2022/03/13 05:07:36;;;;;;;2.92;2.20;;;;;;;;;;4990490;28;20042;-78
2022/03/13 05:10:01;;;;;;;3.03;1.70;;;;;;;;;;4990671;28;20517;-78
2022/03/13 05:12:27;;;;;;;2.60;1.77;;;;;;;;;;5003293;28;20041;-78
2022/03/13 05:14:53;;;;;;;2.65;1.80;;;;;;;;;;4974610;28;20049;-77
2022/03/13 05:17:19;;;;;;;3.60;2.42;;;;;;;;;;4992063;28;20037;-78
2022/03/13 05:19:44;;;;;;;2.75;2.22;;;;;;;;;;4993733;28;20061;-77
2022/03/13 05:22:10;;;;;;;3.45;2.10;;;;;;;;;;4994327;28;20488;-77
2022/03/13 05:24:36;;;;;;;3.15;2.10;;;;;;;;;;5010119;28;20108;-78
2022/03/13 05:27:01;;;;;;;3.58;2.33;;;;;;;;;;4993878;28;20124;-77
2022/03/13 05:29:27;;;;;;;2.83;1.90;;;;;;;;;;4993972;28;20117;-78
2022/03/13 05:31:52;;;;;;;3.05;1.98;;;;;;;;;;4993839;28;20038;-78
2022/03/13 05:34:18;;;;;;;3.03;2.08;;;;;;;;;;4993615;28;20108;-78
2022/03/13 05:36:43;;;;;;;2.97;1.95;;;;;;;;;;4993588;28;20034;-78
2022/03/13 05:39:09;;;;;;;2.80;2.13;;;;;;;;;;4994077;28;20117;-77
2022/03/13 05:41:40;;;;;;;2.60;1.90;;;;;;;;;;5010146;28;20109;-77
2022/03/13 05:44:09;;;;;;;3.13;2.20;;;;;;;;;;4994937;28;20046;-77
2022/03/13 05:46:34;;;;;;;2.75;2.00;;;;;;;;;;5010171;28;20101;-77
2022/03/13 05:49:00;;;;;;;4.13;2.10;;;;;;;;;;4993270;28;20514;-77
2022/03/13 05:51:25;;;;;;;2.80;2.03;;;;;;;;;;4992949;28;20092;-77
2022/03/13 05:53:51;;;;;;;3.00;2.08;;;;;;;;;;4993598;28;20432;-77
2022/03/13 05:56:16;;;;;;;3.22;2.05;;;;;;;;;;4993578;28;20416;-77
2022/03/13 05:58:42;;;;;;;3.72;1.92;;;;;;;;;;5007371;28;20515;-77
2022/03/13 06:01:09;;;;;;;4.22;2.50;;;;;;;;;;4993639;28;20041;-77
2022/03/13 06:03:34;;;;;;;3.05;1.98;;;;;;;;;;4991626;28;20041;-77
2022/03/13 06:06:02;;;;;;;4.57;2.35;;;;;;;;;;5013436;28;20559;-77
2022/03/13 06:08:28;;;;;;;7.35;2.28;;;;;;;;;;4996642;28;20052;-77
2022/03/13 06:10:54;;;;;;;4.93;2.42;;;;;;;;;;5013278;28;20042;-78
2022/03/13 06:13:21;;;;;;;4.88;2.38;;;;;;;;;;4997067;28;20048;-78
2022/03/13 06:15:46;;;;;;;7.15;2.40;;;;;;;;;;4996863;28;20092;-78
2022/03/13 06:18:12;;;;;;;3.70;2.40;;;;;;;;;;4996583;28;20037;-78
2022/03/13 06:20:37;;;;;;;5.18;2.47;;;;;;;;;;5009804;28;20030;-78
2022/03/13 06:23:03;;;;;;;7.45;3.45;;;;;;;;;;5029170;28;20037;-78
2022/03/13 06:25:29;;;;;;;6.38;2.42;;;;;;;;;;4996664;28;20041;-78
2022/03/13 06:27:54;;;;;;;10.40;4.18;;;;;;;;;;5012754;28;20412;-77
2022/03/13 06:30:21;;;;;;;6.22;3.22;;;;;;;;;;4996612;28;20404;-77
2022/03/13 06:32:51;;;;;;;7.20;3.15;;;;;;;;;;5013024;28;20424;-77
2022/03/13 06:35:17;;;;;;;6.88;3.38;;;;;;;;;;4994321;28;20133;-77
2022/03/13 06:37:43;;;;;;;6.40;2.80;;;;;;;;;;4991802;28;20093;-77
2022/03/13 06:40:09;;;;;;;6.55;2.97;;;;;;;;;;5012362;28;20069;-77
2022/03/13 06:42:35;;;;;;;11.35;4.10;;;;;;;;;;4996548;28;20045;-77
2022/03/13 06:45:00;;;;;;;7.90;4.03;;;;;;;;;;4995793;28;20041;-77
2022/03/13 06:47:26;;;;;;;7.30;4.32;;;;;;;;;;5012280;28;20038;-77
2022/03/13 06:49:51;;;;;;;8.00;4.03;;;;;;;;;;4996475;28;20062;-77
2022/03/13 06:52:22;;;;;;;8.35;3.92;;;;;;;;;;4992977;28;20157;-77
2022/03/13 06:54:48;;;;;;;6.70;4.05;;;;;;;;;;5012082;28;20033;-77
2022/03/13 06:57:18;;;;;;;6.63;3.83;;;;;;;;;;4996228;28;20498;-77
2022/03/13 06:59:44;;;;;;;7.65;4.05;;;;;;;;;;4992518;28;20073;-77
2022/03/13 07:02:13;;;;;;;7.22;4.30;;;;;;;;;;5009147;28;20464;-77
2022/03/13 07:04:38;;;;;;;6.93;4.15;;;;;;;;;;4993257;28;20042;-77
2022/03/13 07:07:04;;;;;;;8.23;3.47;;;;;;;;;;4995505;28;20037;-77
2022/03/13 07:09:29;;;;;;;7.80;3.80;;;;;;;;;;4995847;28;20096;-77
2022/03/13 07:11:55;;;;;;;6.40;3.63;;;;;;;;;;4995852;28;20444;-77
2022/03/13 07:14:21;;;;;;;9.85;3.60;;;;;;;;;;5005496;28;20057;-77
2022/03/13 07:16:47;;;;;;;10.90;3.78;;;;;;;;;;5028092;28;20050;-77
2022/03/13 07:19:12;;;;;;;7.63;3.17;;;;;;;;;;5011773;28;20038;-77
2022/03/13 07:21:38;;;;;;;7.35;3.30;;;;;;;;;;4995524;28;20038;-77
2022/03/13 07:24:04;;;;;;;7.80;3.40;;;;;;;;;;4995572;28;20033;-77
2022/03/13 07:26:29;;;;;;;10.15;3.97;;;;;;;;;;4995826;28;20034;-77
2022/03/13 07:28:55;;;;;;;5.85;3.13;;;;;;;;;;4995491;28;20037;-77
2022/03/13 07:31:20;;;;;;;5.50;3.22;;;;;;;;;;5007459;28;20417;-77
2022/03/13 07:33:46;;;;;;;5.15;3.03;;;;;;;;;;5008397;28;20046;-77
2022/03/13 07:36:11;;;;;;;6.15;3.33;;;;;;;;;;5011093;28;20049;-77
2022/03/13 07:38:37;;;;;;;5.55;2.72;;;;;;;;;;4995296;28;20404;-77
2022/03/13 07:41:03;;;;;;;5.63;3.03;;;;;;;;;;4995582;28;20049;-77
2022/03/13 07:43:29;;;;;;;55.95;7.18;;;;;;;;;;4995194;28;20038;-77
2022/03/13 07:45:54;;;;;;;35.70;7.28;;;;;;;;;;4994866;28;20136;-77
2022/03/13 07:48:19;;;;;;;51.42;8.05;;;;;;;;;;4978083;28;20046;-77
2022/03/13 07:50:45;;;;;;;27.48;5.57;;;;;;;;;;5023987;28;20034;-77
2022/03/13 07:53:10;;;;;;;14.90;5.15;;;;;;;;;;5007814;28;20382;-77
2022/03/13 07:55:36;;;;;;;14.50;4.00;;;;;;;;;;5027443;28;20498;-77
2022/03/13 07:58:01;;;;;;;12.05;4.10;;;;;;;;;;4993717;28;20042;-77
2022/03/13 08:00:27;;;;;;;16.45;4.63;;;;;;;;;;5009279;28;20034;-77
2022/03/13 08:02:54;;;;;;;13.63;3.53;;;;;;;;;;4991628;28;20038;-77
2022/03/13 08:05:20;;;;;;;17.63;4.65;;;;;;;;;;4991878;28;20038;-77
2022/03/13 08:07:45;;;;;;;11.95;3.85;;;;;;;;;;4991103;28;20036;-77
2022/03/13 08:10:11;;;;;;;82.50;9.85;;;;;;;;;;4992168;28;20054;-77
2022/03/13 08:12:38;;;;;;;40.88;5.60;;;;;;;;;;4994321;28;20455;-77
2022/03/13 08:15:06;;;;;;;32.35;5.18;;;;;;;;;;5011092;28;20076;-77
2022/03/13 08:17:32;;;;;;;34.88;5.13;;;;;;;;;;4994839;28;20072;-77
2022/03/13 08:19:59;;;;;;;17.75;3.83;;;;;;;;;;4994538;28;20033;-77
2022/03/13 08:22:25;;;;;;;11.80;3.72;;;;;;;;;;4994110;28;20037;-77
2022/03/13 08:24:50;;;;;;;19.45;4.05;;;;;;;;;;4994303;28;20046;-78
2022/03/13 08:27:16;;;;;;;12.63;3.50;;;;;;;;;;5010236;28;20038;-77
2022/03/13 08:29:42;;;;;;;20.08;4.30;;;;;;;;;;5011030;28;20045;-77
2022/03/13 08:32:08;;;;;;;14.18;3.58;;;;;;;;;;5011089;28;20038;-77
2022/03/13 08:34:38;;;;;;;11.23;4.30;;;;;;;;;;5011119;28;20045;-77
2022/03/13 08:37:04;;;;;;;15.32;3.75;;;;;;;;;;4994969;28;20052;-78
2022/03/13 08:39:29;;;;;;;6.80;2.85;;;;;;;;;;5010218;28;20046;-80
2022/03/13 08:41:55;;;;;;;8.68;3.65;;;;;;;;;;4994470;28;20044;-79
2022/03/13 08:44:20;;;;;;;11.23;3.30;;;;;;;;;;5026816;28;20046;-80
2022/03/13 08:46:45;;;;;;;10.57;3.60;;;;;;;;;;4994072;28;20033;-81
2022/03/13 08:49:12;;;;;;;7.45;3.55;;;;;;;;;;5010510;28;20060;-81
2022/03/13 08:51:37;;;;;;;8.85;3.20;;;;;;;;;;4993501;28;20041;-80
2022/03/13 08:54:03;;;;;;;7.68;3.47;;;;;;;;;;4993381;28;20046;-80
2022/03/13 08:56:29;;;;;;;7.93;3.60;;;;;;;;;;4993513;28;20049;-80
2022/03/13 08:58:55;;;;;;;12.40;3.63;;;;;;;;;;4991026;28;20166;-80
2022/03/13 09:01:22;;;;;;;9.48;3.63;;;;;;;;;;4974449;28;20030;-80
2022/03/13 09:03:47;;;;;;;10.05;4.13;;;;;;;;;;4974266;28;20043;-80
2022/03/13 09:06:13;;;;;;;8.93;4.57;;;;;;;;;;4990681;28;20038;-81
2022/03/13 09:08:38;;;;;;;11.07;4.03;;;;;;;;;;4973164;28;20555;-81
2022/03/13 09:11:04;;;;;;;12.82;4.10;;;;;;;;;;4991460;28;20049;-81
2022/03/13 09:13:29;;;;;;;12.43;4.50;;;;;;;;;;4993390;28;20416;-81
2022/03/13 09:15:56;;;;;;;11.18;3.95;;;;;;;;;;4993704;28;20416;-80
2022/03/13 09:18:22;;;;;;;13.90;4.40;;;;;;;;;;4993526;28;20044;-80
2022/03/13 09:20:47;;;;;;;25.13;5.20;;;;;;;;;;4992546;28;20037;-80
2022/03/13 09:23:12;;;;;;;12.27;4.78;;;;;;;;;;5009544;28;20451;-80
2022/03/13 09:25:38;;;;;;;11.18;4.20;;;;;;;;;;4992887;28;20108;-79
2022/03/13 09:28:04;;;;;;;10.70;3.78;;;;;;;;;;5010365;28;20092;-80
2022/03/13 09:30:29;;;;;;;14.32;4.32;;;;;;;;;;4994087;28;20038;-80
2022/03/13 09:32:55;;;;;;;8.93;3.25;;;;;;;;;;4974406;28;20157;-80
2022/03/13 09:35:20;;;;;;;5.95;2.80;;;;;;;;;;4984643;28;20519;-79
2022/03/13 09:37:46;;;;;;;6.65;3.33;;;;;;;;;;4994681;28;20050;-80
2022/03/13 09:40:12;;;;;;;6.85;2.88;;;;;;;;;;5010536;28;20046;-79
2022/03/13 09:42:38;;;;;;;7.18;2.58;;;;;;;;;;4983992;28;20045;-79
2022/03/13 09:45:03;;;;;;;4.88;2.63;;;;;;;;;;5004006;28;20038;-78
2022/03/13 09:47:29;;;;;;;5.10;2.75;;;;;;;;;;4973805;28;20034;-79
2022/03/13 09:49:54;;;;;;;5.10;2.50;;;;;;;;;;4996806;28;20508;-79
2022/03/13 09:52:20;;;;;;;4.18;2.55;;;;;;;;;;4980209;28;20076;-80
2022/03/13 09:54:45;;;;;;;5.78;3.47;;;;;;;;;;5013302;28;20042;-79
2022/03/13 09:57:11;;;;;;;5.55;3.00;;;;;;;;;;5010132;28;20036;-79
2022/03/13 09:59:37;;;;;;;5.50;2.78;;;;;;;;;;4985904;28;20125;-79
2022/03/13 10:02:06;;;;;;;5.68;2.65;;;;;;;;;;4998890;28;20113;-79
2022/03/13 10:04:32;;;;;;;4.55;2.30;;;;;;;;;;4997429;28;20500;-80
2022/03/13 10:07:11;;;;;;;4.53;2.55;;;;;;;;;;4996940;28;20088;-79
2022/03/13 10:09:38;;;;;;;5.78;2.40;;;;;;;;;;4995252;28;20053;-80
2022/03/13 10:12:04;;;;;;;7.40;2.45;;;;;;;;;;4977452;28;20065;-79
2022/03/13 10:14:30;;;;;;;5.05;2.45;;;;;;;;;;4992093;28;20052;-79
2022/03/13 10:16:55;;;;;;;5.82;2.33;;;;;;;;;;4991463;28;20072;-79
2022/03/13 10:19:22;;;;;;;5.72;1.92;;;;;;;;;;5005196;28;20493;-79
2022/03/13 10:22:04;;;;;;;4.28;2.20;;;;;;;;;;4961388;28;20066;-79
2022/03/13 10:24:38;;;;;;;4.72;2.40;;;;;;;;;;4993845;28;20041;-79
2022/03/13 10:27:09;;;;;;;3.25;2.13;;;;;;;;;;5012922;28;20109;-79
2022/03/13 10:29:35;;;;;;;5.63;1.88;;;;;;;;;;5014185;28;20042;-79
2022/03/13 10:32:01;;;;;;;7.03;3.13;;;;;;;;;;4996452;28;20104;-79
2022/03/13 10:34:26;;;;;;;5.78;1.90;;;;;;;;;;4996592;28;20125;-79
2022/03/13 10:36:52;;;;;;;7.55;2.47;;;;;;;;;;4991482;28;20050;-79
2022/03/13 10:39:18;;;;;;;6.25;2.00;;;;;;;;;;5009293;28;20042;-79
2022/03/13 10:41:44;;;;;;;3.78;1.75;;;;;;;;;;5009603;28;20037;-79
2022/03/13 10:44:14;;;;;;;4.55;1.90;;;;;;;;;;5009014;28;20042;-79
2022/03/13 10:46:40;;;;;;;5.15;1.90;;;;;;;;;;4977178;28;20058;-80
2022/03/13 10:49:09;;;;;;;3.72;2.05;;;;;;;;;;5009368;28;20144;-79
2022/03/13 10:51:49;;;;;;;4.53;1.73;;;;;;;;;;5011937;28;20045;-79
2022/03/13 10:54:30;;;;;;;4.32;1.80;;;;;;;;;;5011823;28;20553;-80
2022/03/13 10:57:06;;;;;;;4.03;1.83;;;;;;;;;;5012530;28;20056;-80
2022/03/13 10:59:32;;;;;;;3.80;1.42;;;;;;;;;;5013730;28;20077;-79
2022/03/13 11:02:33;;;;;;;2.40;1.50;;;;;;;;;;5029004;28;20494;-79
2022/03/13 11:05:00;;;;;;;3.35;1.80;;;;;;;;;;4929395;29;20373;-79
2022/03/13 11:07:28;;;;;;;3.70;1.80;;;;;;;;;;4990674;28;20049;-80
2022/03/13 11:09:54;;;;;;;5.30;1.50;;;;;;;;;;4996840;28;20164;-80
2022/03/13 11:12:23;;;;;;;3.83;2.00;;;;;;;;;;4996108;28;20036;-79
2022/03/13 11:14:50;;;;;;;4.93;2.15;;;;;;;;;;4995723;28;20049;-79
2022/03/13 11:17:18;;;;;;;4.47;1.60;;;;;;;;;;5011916;28;20164;-79
2022/03/13 11:19:45;;;;;;;6.68;2.03;;;;;;;;;;4995947;28;20038;-81
2022/03/13 11:22:11;;;;;;;7.68;1.58;;;;;;;;;;4996086;28;20041;-81
2022/03/13 11:24:36;;;;;;;4.93;2.28;;;;;;;;;;5011001;28;20068;-80
2022/03/13 11:27:07;;;;;;;5.13;1.73;;;;;;;;;;4995698;28;20120;-81
2022/03/13 11:29:40;;;;;;;6.45;2.30;;;;;;;;;;4978514;28;20088;-80
2022/03/13 11:32:31;;;;;;;6.22;3.30;;;;;;;;;;4995871;28;20038;-80
2022/03/13 11:35:14;;;;;;;5.80;2.97;;;;;;;;;;5011132;28;20038;-80
2022/03/13 11:37:40;;;;;;;6.18;3.17;;;;;;;;;;5011882;28;20046;-80
2022/03/13 11:40:07;;;;;;;8.57;2.55;;;;;;;;;;5008034;28;20467;-80
2022/03/13 11:42:52;;;;;;;3.35;2.53;;;;;;;;;;4992275;28;20113;-80
2022/03/13 11:45:33;;;;;;;8.30;3.13;;;;;;;;;;5025010;28;20382;-80
2022/03/13 11:48:22;;;;;;;4.85;2.45;;;;;;;;;;5011032;28;20049;-80
2022/03/13 11:50:54;;;;;;;6.18;2.92;;;;;;;;;;4992083;28;20089;-80
2022/03/13 11:53:20;;;;;;;5.18;2.35;;;;;;;;;;4991862;28;20030;-81
2022/03/13 11:55:58;;;;;;;4.55;1.70;;;;;;;;;;4991607;28;20134;-81
2022/03/13 11:58:46;;;;;;;4.45;1.75;;;;;;;;;;5022777;28;20034;-80
2022/03/13 12:01:16;;;;;;;3.25;1.70;;;;;;;;;;4995569;28;20038;-80
2022/03/13 12:04:00;;;;;;;3.40;1.92;;;;;;;;;;4995443;28;20052;-81
2022/03/13 12:06:50;;;;;;;3.58;1.70;;;;;;;;;;5012183;28;20034;-81
2022/03/13 12:09:29;;;;;;;3.38;1.98;;;;;;;;;;5010773;28;20428;-80
2022/03/13 12:12:03;;;;;;;3.65;1.70;;;;;;;;;;4994941;28;20038;-81
2022/03/13 12:14:57;;;;;;;4.60;1.95;;;;;;;;;;4994855;28;20037;-80
2022/03/13 12:17:30;;;;;;;4.47;1.83;;;;;;;;;;5010793;28;20026;-80
2022/03/13 12:19:59;;;;;;;3.80;1.55;;;;;;;;;;4993837;28;20674;-81
2022/03/13 12:22:26;;;;;;;4.70;1.80;;;;;;;;;;4993876;28;20030;-81
2022/03/13 12:24:53;;;;;;;8.50;1.50;;;;;;;;;;4993952;28;20038;-81
2022/03/13 12:27:25;;;;;;;3.20;1.52;;;;;;;;;;4993582;28;20059;-81
2022/03/13 12:29:55;;;;;;;4.47;1.60;;;;;;;;;;4994023;28;20496;-81
2022/03/13 12:32:20;;;;;;;5.00;1.60;;;;;;;;;;4995368;28;20042;-81
2022/03/13 12:34:46;;;;;;;4.22;1.50;;;;;;;;;;4974926;28;20523;-81
2022/03/13 12:37:11;;;;;;;5.53;1.58;;;;;;;;;;4974763;28;20405;-81
2022/03/13 12:39:50;;;;;;;5.53;2.20;;;;;;;;;;4989784;28;20042;-81
2022/03/13 12:42:23;;;;;;;4.68;1.70;;;;;;;;;;5006477;28;20519;-81
2022/03/13 12:45:09;;;;;;;5.15;1.85;;;;;;;;;;4975101;28;20031;-81
2022/03/13 12:47:36;;;;;;;2.45;1.30;;;;;;;;;;4975541;28;20030;-81
2022/03/13 12:50:01;;;;;;;3.55;1.10;;;;;;;;;;4975281;28;20038;-81
2022/03/13 12:52:27;;;;;;;1.67;1.13;;;;;;;;;;4990403;28;20034;-81
2022/03/13 12:54:58;;;;;;;2.90;1.48;;;;;;;;;;4993651;28;20050;-81
2022/03/13 12:57:23;;;;;;;2.10;1.35;;;;;;;;;;5010702;28;20038;-81
2022/03/13 12:59:49;;;;;;;6.22;1.80;;;;;;;;;;4989746;28;20049;-81
2022/03/13 13:02:26;;;;;;;5.88;1.65;;;;;;;;;;5007012;28;20084;-81
2022/03/13 13:04:59;;;;;;;2.25;1.15;;;;;;;;;;5022882;28;20121;-81
2022/03/13 13:07:37;;;;;;;3.08;1.40;;;;;;;;;;5006776;28;20515;-81
2022/03/13 13:10:08;;;;;;;3.33;1.52;;;;;;;;;;5010517;28;20038;-81
2022/03/13 13:12:35;;;;;;;4.22;2.08;;;;;;;;;;5014074;28;20093;-81
2022/03/13 13:15:09;;;;;;;3.10;1.48;;;;;;;;;;4998518;28;20053;-81
2022/03/13 13:17:35;;;;;;;1.95;0.90;;;;;;;;;;4982358;28;20034;-81
2022/03/13 13:20:17;;;;;;;1.98;1.13;;;;;;;;;;4981521;28;20058;-81
2022/03/13 13:22:44;;;;;;;2.10;1.30;;;;;;;;;;4999139;28;20034;-81
2022/03/13 13:25:17;;;;;;;2.92;1.25;;;;;;;;;;5014057;28;20038;-81
2022/03/13 13:27:44;;;;;;;2.80;1.23;;;;;;;;;;4998469;28;20037;-81
2022/03/13 13:30:36;;;;;;;2.13;1.20;;;;;;;;;;4997483;28;20408;-81
2022/03/13 13:33:05;;;;;;;2.92;1.33;;;;;;;;;;5026113;28;20520;-81
2022/03/13 13:35:47;;;;;;;2.90;1.15;;;;;;;;;;5013162;28;20415;-81
2022/03/13 13:38:17;;;;;;;2.08;1.52;;;;;;;;;;5013563;28;20038;-81
2022/03/13 13:40:46;;;;;;;3.13;0.90;;;;;;;;;;4995083;28;20113;-81
2022/03/13 13:43:34;;;;;;;3.33;1.42;;;;;;;;;;5026987;28;20038;-79
2022/03/13 13:46:18;;;;;;;3.00;1.30;;;;;;;;;;5009906;28;20504;-81
2022/03/13 13:48:45;;;;;;;3.35;1.33;;;;;;;;;;5007833;28;20046;-81
2022/03/13 13:51:20;;;;;;;2.63;1.20;;;;;;;;;;4994308;28;20069;-81
2022/03/13 13:53:48;;;;;;;2.38;1.40;;;;;;;;;;4981606;28;20046;-81
2022/03/13 13:56:14;;;;;;;2.42;1.25;;;;;;;;;;4977893;28;20034;-81
2022/03/13 13:58:40;;;;;;;4.35;1.23;;;;;;;;;;4993982;28;20489;-82
2022/03/13 14:01:32;;;;;;;3.00;1.52;;;;;;;;;;5010356;28;20519;-81
2022/03/13 14:03:59;;;;;;;2.58;1.27;;;;;;;;;;4999862;28;20050;-81
2022/03/13 14:06:25;;;;;;;2.92;1.67;;;;;;;;;;4993999;28;20118;-81
2022/03/13 14:08:51;;;;;;;2.15;1.70;;;;;;;;;;4994041;28;20074;-81
2022/03/13 14:11:17;;;;;;;2.25;1.17;;;;;;;;;;4997356;28;20080;-81
2022/03/13 14:13:44;;;;;;;2.30;1.20;;;;;;;;;;4982233;28;20046;-81
2022/03/13 14:16:09;;;;;;;1.90;1.45;;;;;;;;;;5026501;28;20046;-81
2022/03/13 14:18:35;;;;;;;1.80;1.10;;;;;;;;;;4993340;28;20404;-81
2022/03/13 14:21:02;;;;;;;3.05;1.40;;;;;;;;;;5011627;28;20041;-81
2022/03/13 14:23:28;;;;;;;2.17;1.23;;;;;;;;;;4985668;28;20519;-81
2022/03/13 14:25:53;;;;;;;2.80;1.42;;;;;;;;;;4996646;28;20069;-81
2022/03/13 14:28:20;;;;;;;2.45;1.15;;;;;;;;;;5012738;28;20048;-82
2022/03/13 14:30:46;;;;;;;2.95;1.45;;;;;;;;;;5013192;28;20044;-81
2022/03/13 14:33:11;;;;;;;2.53;1.27;;;;;;;;;;4996848;28;20069;-81
2022/03/13 14:35:37;;;;;;;2.03;1.10;;;;;;;;;;4996514;28;20044;-81
2022/03/13 14:38:02;;;;;;;2.22;1.45;;;;;;;;;;4996595;28;20559;-81
2022/03/13 14:40:27;;;;;;;2.50;1.17;;;;;;;;;;4996467;28;20561;-81
2022/03/13 14:42:53;;;;;;;2.55;1.50;;;;;;;;;;4995888;28;20038;-81
2022/03/13 14:45:19;;;;;;;2.65;1.55;;;;;;;;;;5013925;28;20045;-81